Time;durP1;ratioP1;P1;durP2;ratioP2;P2;SDS_P1;SDS_P2;PMS_P1;PMS_P2;Temp;Humidity;BMP_temperature;BMP_pressure;BME280_temperature;BME280_humidity;BME280_pressure;Samples;Min_cycle;Max_cycle;Signal;HPM_P1;HPM_P2
2022/10/01 00:03:19;;;;;;;;;;;;;;;;;;8485184;27;27424;-77
2022/10/01 00:07:19;;;;;;;;;;;;;;;;;;8467827;27;28459;-77
2022/10/01 00:11:19;;;;;;;;;;;;;;;;;;8467647;27;28320;-77
2022/10/01 00:15:20;;;;;;;;;;;;;;;;;;8479507;27;27123;-77
2022/10/01 00:19:21;;;;;;;;;;;;;;;;;;8468055;27;28702;-77
2022/10/01 00:23:21;;;;;;;;;;;;;;;;;;8472845;27;28668;-77
2022/10/01 00:27:22;;;;;;;;;;;;;;;;;;8489151;27;27990;-77
2022/10/01 00:31:22;;;;;;;;;;;;;;;;;;8488454;27;27515;-76
2022/10/01 00:35:22;;;;;;;;;;;;;;;;;;8485182;27;27597;-76
2022/10/01 00:39:25;;;;;;;;;;;;;;;;;;8472414;27;28644;-77
2022/10/01 00:43:25;;;;;;;;;;;;;;;;;;8487089;27;27126;-76
2022/10/01 00:47:26;;;;;;;;;;;;;;;;;;8483024;27;27638;-76
2022/10/01 00:51:26;;;;;;;;;;;;;;;;;;8470432;27;28116;-75
2022/10/01 00:55:26;;;;;;;;;;;;;;;;;;8467272;27;28364;-76
2022/10/01 00:59:26;;;;;;;;;;;;;;;;;;8468496;27;28198;-75
2022/10/01 01:03:26;;;;;;;;;;;;;;;;;;8481614;27;27309;-75
2022/10/01 01:07:26;;;;;;;;;;;;;;;;;;8481015;27;28708;-75
2022/10/01 01:11:27;;;;;;;;;;;;;;;;;;8487918;27;27255;-75
2022/10/01 01:15:27;;;;;;;;;;;;;;;;;;8471524;27;29699;-75
2022/10/01 01:19:27;;;;;;;;;;;;;;;;;;8486298;27;27902;-75
2022/10/01 01:23:27;;;;;;;;;;;;;;;;;;8466118;27;28196;-75
2022/10/01 01:27:27;;;;;;;;;;;;;;;;;;8484138;27;28569;-76
2022/10/01 01:31:28;;;;;;;;;;;;;;;;;;8481437;27;27555;-75
2022/10/01 01:35:30;;;;;;;;;;;;;;;;;;8483537;27;28315;-75
2022/10/01 01:39:30;;;;;;;;;;;;;;;;;;8484608;27;27427;-76
2022/10/01 01:43:32;;;;;;;;;;;;;;;;;;8480212;27;27595;-76
2022/10/01 01:47:32;;;;;;;;;;;;;;;;;;8470582;27;28278;-76
2022/10/01 01:51:32;;;;;;;;;;;;;;;;;;8481354;27;27448;-76
2022/10/01 01:55:32;;;;;;;;;;;;;;;;;;8480851;27;27848;-75
2022/10/01 01:59:35;;;;;;;;;;;;;;;;;;8479774;27;28204;-76
2022/10/01 02:03:36;;;;;;;;;;;;;;;;;;8468449;27;27469;-76
2022/10/01 02:07:36;;;;;;;;;;;;;;;;;;8460181;27;28608;-76
2022/10/01 02:11:37;;;;;;;;;;;;;;;;;;8463466;27;46303;-76
2022/10/01 02:15:37;;;;;;;;;;;;;;;;;;8461723;27;28398;-75
2022/10/01 02:19:37;;;;;;;;;;;;;;;;;;8477202;27;28692;-75
2022/10/01 02:23:37;;;;;;;;;;;;;;;;;;8463605;27;28683;-75
2022/10/01 02:27:37;;;;;;;;;;;;;;;;;;8479959;27;28092;-77
2022/10/01 02:31:38;;;;;;;;;;;;;;;;;;8466682;27;29623;-76
2022/10/01 02:35:38;;;;;;;;;;;;;;;;;;8483530;27;27211;-77
2022/10/01 02:39:39;;;;;;;;;;;;;;;;;;8467939;27;28167;-76
2022/10/01 02:43:39;;;;;;;;;;;;;;;;;;8468756;27;29359;-76
2022/10/01 02:47:40;;;;;;;;;;;;;;;;;;8466889;27;28413;-77
2022/10/01 02:51:40;;;;;;;;;;;;;;;;;;8463567;27;28171;-77
2022/10/01 02:55:40;;;;;;;;;;;;;;;;;;8482101;27;28118;-76
2022/10/01 02:59:41;;;;;;;;;;;;;;;;;;8464475;27;28184;-76
2022/10/01 03:03:41;;;;;;;;;;;;;;;;;;8464584;27;28431;-77
2022/10/01 03:07:42;;;;;;;;;;;;;;;;;;8462798;27;28236;-76
2022/10/01 03:11:42;;;;;;;;;;;;;;;;;;8471151;27;28466;-76
2022/10/01 03:15:42;;;;;;;;;;;;;;;;;;8487011;27;27749;-76
2022/10/01 03:19:42;;;;;;;;;;;;;;;;;;8479623;27;28451;-77
2022/10/01 03:23:43;;;;;;;;;;;;;;;;;;8489564;27;28421;-76
2022/10/01 03:27:43;;;;;;;;;;;;;;;;;;8485448;27;27786;-76
2022/10/01 03:31:43;;;;;;;;;;;;;;;;;;8474504;27;29036;-76
2022/10/01 03:35:43;;;;;;;;;;;;;;;;;;8488934;27;30211;-76
2022/10/01 03:39:43;;;;;;;;;;;;;;;;;;8471809;27;28139;-75
2022/10/01 03:43:43;;;;;;;;;;;;;;;;;;8483538;27;28500;-76
2022/10/01 03:47:44;;;;;;;;;;;;;;;;;;8486477;27;27341;-76
2022/10/01 03:51:44;;;;;;;;;;;;;;;;;;8470270;27;28556;-77
2022/10/01 03:55:44;;;;;;;;;;;;;;;;;;8486711;27;27871;-77
2022/10/01 03:59:44;;;;;;;;;;;;;;;;;;8491172;27;27595;-76
2022/10/01 04:03:45;;;;;;;;;;;;;;;;;;8488693;27;27757;-78
2022/10/01 04:07:45;;;;;;;;;;;;;;;;;;8474598;27;28561;-76
2022/10/01 04:11:46;;;;;;;;;;;;;;;;;;8487745;27;27934;-77
2022/10/01 04:15:47;;;;;;;;;;;;;;;;;;8473377;27;29007;-77
2022/10/01 04:19:47;;;;;;;;;;;;;;;;;;8472270;27;28789;-76
2022/10/01 04:23:49;;;;;;;;;;;;;;;;;;8486363;27;27377;-76
2022/10/01 04:27:49;;;;;;;;;;;;;;;;;;8463304;27;28571;-76
2022/10/01 04:31:49;;;;;;;;;;;;;;;;;;8468552;27;28570;-75
2022/10/01 04:35:49;;;;;;;;;;;;;;;;;;8486606;27;28397;-76
2022/10/01 04:39:49;;;;;;;;;;;;;;;;;;8470523;27;28553;-75
2022/10/01 04:43:49;;;;;;;;;;;;;;;;;;8483519;27;27349;-75
2022/10/01 04:47:49;;;;;;;;;;;;;;;;;;8468293;27;28150;-75
2022/10/01 04:51:50;;;;;;;;;;;;;;;;;;8502741;27;27190;-75
2022/10/01 04:55:50;;;;;;;;;;;;;;;;;;8488437;27;28433;-74
2022/10/01 04:59:50;;;;;;;;;;;;;;;;;;8507315;27;27405;-75
2022/10/01 05:03:50;;;;;;;;;;;;;;;;;;8491450;27;28558;-74
2022/10/01 05:07:50;;;;;;;;;;;;;;;;;;8509491;27;27355;-75
2022/10/01 05:11:50;;;;;;;;;;;;;;;;;;8495432;27;28438;-77
2022/10/01 05:15:51;;;;;;;;;;;;;;;;;;8510644;27;27194;-75
2022/10/01 05:19:51;;;;;;;;;;;;;;;;;;8498292;27;28193;-76
2022/10/01 05:23:51;;;;;;;;;;;;;;;;;;8485265;27;28085;-76
2022/10/01 05:27:52;;;;;;;;;;;;;;;;;;8469786;27;28451;-76
2022/10/01 05:31:52;;;;;;;;;;;;;;;;;;8483147;27;27635;-76
2022/10/01 05:35:52;;;;;;;;;;;;;;;;;;8485027;27;27439;-75
2022/10/01 05:39:52;;;;;;;;;;;;;;;;;;8483356;27;27447;-76
2022/10/01 05:43:52;;;;;;;;;;;;;;;;;;8467447;27;28267;-77
2022/10/01 05:47:54;;;;;;;;;;;;;;;;;;8469543;27;28168;-76
2022/10/01 05:51:54;;;;;;;;;;;;;;;;;;8474766;27;28530;-76
2022/10/01 05:55:54;;;;;;;;;;;;;;;;;;8483948;27;27353;-75
2022/10/01 05:59:56;;;;;;;;;;;;;;;;;;8475194;27;28579;-75
2022/10/01 06:03:56;;;;;;;;;;;;;;;;;;8464879;27;29258;-75
2022/10/01 06:07:56;;;;;;;;;;;;;;;;;;8480467;27;27758;-76
2022/10/01 06:11:57;;;;;;;;;;;;;;;;;;8485310;27;28564;-77
2022/10/01 06:15:57;;;;;;;;;;;;;;;;;;8485612;27;27379;-76
2022/10/01 06:19:57;;;;;;;;;;;;;;;;;;8467431;27;28375;-77
2022/10/01 06:23:57;;;;;;;;;;;;;;;;;;8486668;27;27284;-76
2022/10/01 06:27:57;;;;;;;;;;;;;;;;;;8482168;27;27407;-76
2022/10/01 06:31:58;;;;;;;;;;;;;;;;;;8465646;27;28329;-76
2022/10/01 06:35:58;;;;;;;;;;;;;;;;;;8469421;27;28480;-75
2022/10/01 06:39:58;;;;;;;;;;;;;;;;;;8482823;27;27245;-77
2022/10/01 06:43:58;;;;;;;;;;;;;;;;;;8482423;27;27496;-77
2022/10/01 06:48:01;;;;;;;;;;;;;;;;;;8462873;27;27375;-75
2022/10/01 06:56:20;;;;;;;;;;;;;;;;;;8477981;27;28127;-76
2022/10/01 07:00:20;;;;;;;;;;;;;;;;;;8476741;27;28185;-76
2022/10/01 07:04:20;;;;;;;;;;;;;;;;;;8473348;27;28177;-76
2022/10/01 07:08:21;;;;;;;;;;;;;;;;;;8478760;27;27398;-76
2022/10/01 07:12:21;;;;;;;;;;;;;;;;;;8465701;27;28423;-76
2022/10/01 07:16:21;;;;;;;;;;;;;;;;;;8483017;27;28869;-75
2022/10/01 07:20:22;;;;;;;;;;;;;;;;;;8480447;27;28810;-75
2022/10/01 07:24:22;;;;;;;;;;;;;;;;;;8480044;27;28465;-77
2022/10/01 07:28:24;;;;;;;;;;;;;;;;;;8476985;27;28050;-75
2022/10/01 07:32:24;;;;;;;;;;;;;;;;;;8477642;27;27951;-75
2022/10/01 07:36:24;;;;;;;;;;;;;;;;;;8478553;27;27103;-75
2022/10/01 07:40:25;;;;;;;;;;;;;;;;;;8471498;27;27726;-76
2022/10/01 07:44:27;;;;;;;;;;;;;;;;;;8458696;27;27972;-75
2022/10/01 07:48:27;;;;;;;;;;;;;;;;;;8466341;27;28537;-75
2022/10/01 07:52:28;;;;;;;;;;;;;;;;;;8477810;27;27298;-76
2022/10/01 07:56:28;;;;;;;;;;;;;;;;;;8473441;27;28206;-77
2022/10/01 08:00:29;;;;;;;;;;;;;;;;;;8491937;27;27373;-77
2022/10/01 08:08:48;;;;;;;;;;;;;;;;;;8487922;27;27377;-76
2022/10/01 08:12:48;;;;;;;;;;;;;;;;;;8469051;27;28253;-77
2022/10/01 08:16:48;;;;;;;;;;;;;;;;;;8493803;27;28219;-79
2022/10/01 08:20:48;;;;;;;;;;;;;;;;;;8475749;27;28715;-78
2022/10/01 08:24:48;;;;;;;;;;;;;;;;;;8472649;27;28573;-80
2022/10/01 08:28:48;;;;;;;;;;;;;;;;;;8486827;27;27196;-80
2022/10/01 08:32:48;;;;;;;;;;;;;;;;;;8483339;27;28369;-77
2022/10/01 08:36:49;;;;;;;;;;;;;;;;;;8608569;22;28179;-73
2022/10/01 08:40:49;;;;;;;;;;;;;;;;;;8433872;27;28571;-73
2022/10/01 08:44:50;;;;;;;;;;;;;;;;;;8429013;27;27315;-74
2022/10/01 08:48:51;;;;;;;;;;;;;;;;;;8425099;27;28159;-73
2022/10/01 08:52:52;;;;;;;;;;;;;;;;;;8430470;27;27263;-72
2022/10/01 08:56:52;;;;;;;;;;;;;;;;;;8409294;27;46687;-72
2022/10/01 09:00:52;;;;;;;;;;;;;;;;;;8425128;27;27953;-73
2022/10/01 09:04:52;;;;;;;;;;;;;;;;;;8427780;27;28296;-73
2022/10/01 09:08:52;;;;;;;;;;;;;;;;;;8412303;27;27274;-74
2022/10/01 09:12:52;;;;;;;;;;;;;;;;;;8429565;27;27538;-72
2022/10/01 09:16:53;;;;;;;;;;;;;;;;;;8410337;27;29329;-73
2022/10/01 09:20:53;;;;;;;;;;;;;;;;;;8424913;27;29619;-73
2022/10/01 09:24:53;;;;;;;;;;;;;;;;;;8407751;27;28386;-74
2022/10/01 09:28:53;;;;;;;;;;;;;;;;;;8423233;27;27635;-74
2022/10/01 09:32:54;;;;;;;;;;;;;;;;;;8420631;27;28477;-73
2022/10/01 09:36:54;;;;;;;;;;;;;;;;;;8405990;27;28488;-75
2022/10/01 09:40:54;;;;;;;;;;;;;;;;;;8408287;27;28289;-74
2022/10/01 09:44:54;;;;;;;;;;;;;;;;;;8429785;27;28365;-74
2022/10/01 09:48:55;;;;;;;;;;;;;;;;;;8426526;27;27561;-73
2022/10/01 09:52:55;;;;;;;;;;;;;;;;;;8411556;27;28177;-74
2022/10/01 09:56:56;;;;;;;;;;;;;;;;;;8423443;27;27977;-75
2022/10/01 10:00:56;;;;;;;;;;;;;;;;;;8429357;27;27322;-75
2022/10/01 10:04:56;;;;;;;;;;;;;;;;;;8419119;27;27573;-74
2022/10/01 10:08:56;;;;;;;;;;;;;;;;;;8425257;27;27640;-73
2022/10/01 10:12:56;;;;;;;;;;;;;;;;;;8423320;27;27453;-74
2022/10/01 10:16:57;;;;;;;;;;;;;;;;;;8423163;27;27950;-75
2022/10/01 10:20:58;;;;;;;;;;;;;;;;;;8420229;27;27375;-73
2022/10/01 10:25:04;;;;;;;;;;;;;;;;;;8417600;27;28437;-73
2022/10/01 10:29:04;;;;;;;;;;;;;;;;;;8420340;27;27995;-73
2022/10/01 10:33:04;;;;;;;;;;;;;;;;;;8404369;27;29571;-74
2022/10/01 10:37:04;;;;;;;;;;;;;;;;;;8423391;27;27550;-72
2022/10/01 10:41:05;;;;;;;;;;;;;;;;;;8425349;27;27985;-73
2022/10/01 10:45:05;;;;;;;;;;;;;;;;;;8401403;27;28122;-72
2022/10/01 11:51:36;;;;;;;;;;;;;;;;;;9482201;22;28392;-73
2022/10/01 11:59:55;;;;;;;;;;;;;;;;;;8412799;28;28774;-74
2022/10/01 12:03:55;;;;;;;;;;;;;;;;;;8415195;27;27211;-74
2022/10/01 12:07:55;;;;;;;;;;;;;;;;;;8413323;28;28110;-74
2022/10/01 12:11:55;;;;;;;;;;;;;;;;;;8410007;28;28068;-73
2022/10/01 12:15:56;;;;;;;;;;;;;;;;;;8410970;27;28204;-73
2022/10/01 12:19:56;;;;;;;;;;;;;;;;;;8409111;28;27636;-73
2022/10/01 12:23:56;;;;;;;;;;;;;;;;;;8410055;28;27851;-74
2022/10/01 12:27:56;;;;;;;;;;;;;;;;;;8398857;28;29586;-74
2022/10/01 12:31:56;;;;;;;;;;;;;;;;;;8411180;28;29469;-74
2022/10/01 12:35:56;;;;;;;;;;;;;;;;;;8411539;28;27172;-74
2022/10/01 12:39:57;;;;;;;;;;;;;;;;;;8409726;28;28220;-73
2022/10/01 12:43:57;;;;;;;;;;;;;;;;;;8407539;27;29649;-74
2022/10/01 12:47:57;;;;;;;;;;;;;;;;;;8407310;28;28110;-74
2022/10/01 12:51:58;;;;;;;;;;;;;;;;;;8411726;28;28288;-74
2022/10/01 12:55:58;;;;;;;;;;;;;;;;;;8410623;28;27426;-75
2022/10/01 12:59:58;;;;;;;;;;;;;;;;;;8413727;28;27539;-75
2022/10/01 13:03:58;;;;;;;;;;;;;;;;;;8406666;27;28584;-73
2022/10/01 13:07:58;;;;;;;;;;;;;;;;;;8413273;28;27189;-73
2022/10/01 13:12:00;;;;;;;;;;;;;;;;;;8408098;28;27486;-74
2022/10/01 13:16:00;;;;;;;;;;;;;;;;;;8411795;28;28030;-71
2022/10/01 13:20:00;;;;;;;;;;;;;;;;;;8413447;28;27398;-73
2022/10/01 13:24:00;;;;;;;;;;;;;;;;;;8411684;27;27486;-74
2022/10/01 13:28:01;;;;;;;;;;;;;;;;;;8424505;27;28291;-75
2022/10/01 13:32:01;;;;;;;;;;;;;;;;;;8406234;28;28480;-75
2022/10/01 13:36:01;;;;;;;;;;;;;;;;;;8411486;27;28301;-74
2022/10/01 13:40:01;;;;;;;;;;;;;;;;;;8406449;28;28182;-74
2022/10/01 13:44:01;;;;;;;;;;;;;;;;;;8412583;28;28854;-74
2022/10/01 13:48:01;;;;;;;;;;;;;;;;;;8412463;28;28656;-75
2022/10/01 13:52:02;;;;;;;;;;;;;;;;;;8408513;27;28879;-75
2022/10/01 13:56:02;;;;;;;;;;;;;;;;;;8413452;28;27187;-75
2022/10/01 14:00:02;;;;;;;;;;;;;;;;;;8413031;27;28042;-74
2022/10/01 14:04:03;;;;;;;;;;;;;;;;;;8414701;28;27445;-74
2022/10/01 14:08:06;;;;;;;;;;;;;;;;;;8425623;27;28687;-75
2022/10/01 14:16:25;;;;;;;;;;;;;;;;;;8413106;28;27213;-74
2022/10/01 14:20:26;;;;;;;;;;;;;;;;;;8411233;28;29084;-75
2022/10/01 14:24:26;;;;;;;;;;;;;;;;;;8410019;28;27677;-73
2022/10/01 14:28:26;;;;;;;;;;;;;;;;;;8409372;27;28007;-74
2022/10/01 14:32:26;;;;;;;;;;;;;;;;;;8411512;27;27649;-75
2022/10/01 14:36:28;;;;;;;;;;;;;;;;;;8417690;28;27446;-74
2022/10/01 14:40:28;;;;;;;;;;;;;;;;;;8416997;27;28636;-74
2022/10/01 14:44:28;;;;;;;;;;;;;;;;;;8416926;28;27110;-73
2022/10/01 14:48:28;;;;;;;;;;;;;;;;;;8416888;27;27533;-73
2022/10/01 14:52:29;;;;;;;;;;;;;;;;;;8411056;27;27416;-72
2022/10/01 14:56:29;;;;;;;;;;;;;;;;;;8408889;27;27756;-74
2022/10/01 15:00:29;;;;;;;;;;;;;;;;;;8407820;27;27312;-72
2022/10/01 15:04:29;;;;;;;;;;;;;;;;;;8410748;27;27279;-73
2022/10/01 15:08:29;;;;;;;;;;;;;;;;;;8410611;27;28112;-73
2022/10/01 15:12:29;;;;;;;;;;;;;;;;;;8413933;27;27504;-74
2022/10/01 15:16:31;;;;;;;;;;;;;;;;;;8405660;28;29243;-74
2022/10/01 15:20:31;;;;;;;;;;;;;;;;;;8422520;28;27448;-74
2022/10/01 15:24:32;;;;;;;;;;;;;;;;;;8413964;28;28842;-74
2022/10/01 15:28:32;;;;;;;;;;;;;;;;;;8412220;27;27558;-75
2022/10/01 15:32:32;;;;;;;;;;;;;;;;;;8411386;27;27626;-74
2022/10/01 15:36:33;;;;;;;;;;;;;;;;;;8413970;28;27588;-75
2022/10/01 15:40:36;;;;;;;;;;;;;;;;;;8431891;27;27884;-74
2022/10/01 15:44:39;;;;;;;;;;;;;;;;;;8420370;28;28078;-75
2022/10/01 15:48:40;;;;;;;;;;;;;;;;;;8414555;27;27398;-75
2022/10/01 15:52:52;;;;;;;;;;;;;;;;;;8413150;27;27637;-75
2022/10/01 15:56:53;;;;;;;;;;;;;;;;;;8416231;28;27960;-75
2022/10/01 16:00:55;;;;;;;;;;;;;;;;;;8403900;27;28648;-74
2022/10/01 16:04:55;;;;;;;;;;;;;;;;;;8402616;27;29187;-74
2022/10/01 16:08:55;;;;;;;;;;;;;;;;;;8400296;28;28425;-74
2022/10/01 16:12:56;;;;;;;;;;;;;;;;;;8415920;28;27133;-75
2022/10/01 16:16:56;;;;;;;;;;;;;;;;;;8411233;27;28561;-74
2022/10/01 16:20:57;;;;;;;;;;;;;;;;;;8415797;28;27159;-74
2022/10/01 16:24:57;;;;;;;;;;;;;;;;;;8415543;28;27227;-75
2022/10/01 16:28:57;;;;;;;;;;;;;;;;;;8406962;27;28595;-75
2022/10/01 16:32:58;;;;;;;;;;;;;;;;;;8415357;27;27474;-74
2022/10/01 16:36:58;;;;;;;;;;;;;;;;;;8406053;28;28484;-75
2022/10/01 16:40:58;;;;;;;;;;;;;;;;;;8396632;27;28328;-74
2022/10/01 16:44:58;;;;;;;;;;;;;;;;;;8408929;27;28613;-74
2022/10/01 16:48:58;;;;;;;;;;;;;;;;;;8410390;27;28569;-74
2022/10/01 16:53:00;;;;;;;;;;;;;;;;;;8399701;28;28190;-74
2022/10/01 16:57:00;;;;;;;;;;;;;;;;;;8412300;28;27650;-75
2022/10/01 17:01:05;;;;;;;;;;;;;;;;;;8408257;28;27445;-75
2022/10/01 17:05:05;;;;;;;;;;;;;;;;;;8414253;28;27730;-75
2022/10/01 17:09:05;;;;;;;;;;;;;;;;;;8416034;28;27433;-75
2022/10/01 17:13:06;;;;;;;;;;;;;;;;;;8414980;28;27547;-74
2022/10/01 17:17:06;;;;;;;;;;;;;;;;;;8413067;28;28576;-74
2022/10/01 17:21:06;;;;;;;;;;;;;;;;;;8406647;27;28085;-75
2022/10/01 17:25:06;;;;;;;;;;;;;;;;;;8410560;28;27721;-75
2022/10/01 17:29:07;;;;;;;;;;;;;;;;;;8409397;27;27585;-75
2022/10/01 17:33:07;;;;;;;;;;;;;;;;;;8409980;27;27462;-75
2022/10/01 17:37:08;;;;;;;;;;;;;;;;;;8410130;28;27963;-75
2022/10/01 17:41:08;;;;;;;;;;;;;;;;;;8412184;28;27401;-74
2022/10/01 17:45:08;;;;;;;;;;;;;;;;;;8393682;28;28501;-75
2022/10/01 17:49:09;;;;;;;;;;;;;;;;;;8392640;28;28443;-75
2022/10/01 17:53:09;;;;;;;;;;;;;;;;;;8406410;27;27592;-75
2022/10/01 17:57:09;;;;;;;;;;;;;;;;;;8392945;28;29507;-75
2022/10/01 18:01:10;;;;;;;;;;;;;;;;;;8411806;27;27455;-76
2022/10/01 18:05:13;;;;;;;;;;;;;;;;;;8411197;27;29043;-76
2022/10/01 18:09:13;;;;;;;;;;;;;;;;;;8409693;28;27457;-75
2022/10/01 18:13:14;;;;;;;;;;;;;;;;;;8414089;28;27602;-75
2022/10/01 18:17:14;;;;;;;;;;;;;;;;;;8408987;28;27615;-74
2022/10/01 18:21:14;;;;;;;;;;;;;;;;;;8411093;27;28008;-75
2022/10/01 18:25:15;;;;;;;;;;;;;;;;;;8406716;28;28765;-74
2022/10/01 18:29:15;;;;;;;;;;;;;;;;;;8447241;22;27816;-76
2022/10/01 18:33:15;;;;;;;;;;;;;;;;;;8412877;27;28006;-77
2022/10/01 18:37:15;;;;;;;;;;;;;;;;;;8411009;27;28188;-76
2022/10/01 18:41:15;;;;;;;;;;;;;;;;;;8419696;27;28251;-74
2022/10/01 18:45:15;;;;;;;;;;;;;;;;;;8426552;27;28788;-76
2022/10/01 18:49:15;;;;;;;;;;;;;;;;;;8418998;27;27230;-75
2022/10/01 18:53:18;;;;;;;;;;;;;;;;;;8412391;27;47554;-75
2022/10/01 18:57:18;;;;;;;;;;;;;;;;;;8407057;27;28040;-75
2022/10/01 19:01:18;;;;;;;;;;;;;;;;;;8415006;27;27340;-75
2022/10/01 19:05:18;;;;;;;;;;;;;;;;;;8412895;28;28151;-75
2022/10/01 19:09:18;;;;;;;;;;;;;;;;;;8414267;27;27365;-74
2022/10/01 19:13:19;;;;;;;;;;;;;;;;;;8410443;27;28194;-73
2022/10/01 19:17:19;;;;;;;;;;;;;;;;;;8411606;27;27455;-75
2022/10/01 19:21:19;;;;;;;;;;;;;;;;;;8411937;28;28648;-73
2022/10/01 19:25:19;;;;;;;;;;;;;;;;;;8412772;27;27573;-72
2022/10/01 19:29:19;;;;;;;;;;;;;;;;;;8410250;27;28413;-75
2022/10/01 19:33:20;;;;;;;;;;;;;;;;;;8412016;27;28224;-75
2022/10/01 19:37:20;;;;;;;;;;;;;;;;;;8408219;27;27611;-74
2022/10/01 19:41:20;;;;;;;;;;;;;;;;;;8394823;28;28855;-73
2022/10/01 19:45:20;;;;;;;;;;;;;;;;;;8409176;28;27338;-73
2022/10/01 19:49:21;;;;;;;;;;;;;;;;;;8412044;28;27601;-73
2022/10/01 19:53:21;;;;;;;;;;;;;;;;;;8418511;28;28580;-73
2022/10/01 19:57:21;;;;;;;;;;;;;;;;;;8434350;27;28325;-73
2022/10/01 20:01:22;;;;;;;;;;;;;;;;;;8405152;28;29389;-74
2022/10/01 20:05:22;;;;;;;;;;;;;;;;;;8420140;27;28133;-74
2022/10/01 20:09:22;;;;;;;;;;;;;;;;;;8420548;28;27835;-74
2022/10/01 20:13:22;;;;;;;;;;;;;;;;;;8435424;27;28253;-74
2022/10/01 20:17:22;;;;;;;;;;;;;;;;;;8416610;28;28293;-73
2022/10/01 20:21:23;;;;;;;;;;;;;;;;;;8403143;28;29315;-75
2022/10/01 20:25:23;;;;;;;;;;;;;;;;;;8415936;28;27323;-75
2022/10/01 20:29:24;;;;;;;;;;;;;;;;;;8412895;28;29048;-74
2022/10/01 20:33:24;;;;;;;;;;;;;;;;;;8418760;28;28230;-74
2022/10/01 20:37:24;;;;;;;;;;;;;;;;;;8416357;27;27417;-72
2022/10/01 20:41:24;;;;;;;;;;;;;;;;;;8413978;27;28400;-75
2022/10/01 20:45:25;;;;;;;;;;;;;;;;;;8420236;28;28092;-73
2022/10/01 20:49:28;;;;;;;;;;;;;;;;;;8417173;27;27540;-73
2022/10/01 20:53:29;;;;;;;;;;;;;;;;;;8416707;28;27791;-74
2022/10/01 20:57:30;;;;;;;;;;;;;;;;;;8433106;27;28728;-74
2022/10/01 21:01:30;;;;;;;;;;;;;;;;;;8416561;27;28241;-74
2022/10/01 21:05:30;;;;;;;;;;;;;;;;;;8413364;27;27829;-75
2022/10/01 21:09:30;;;;;;;;;;;;;;;;;;8417833;28;27404;-74
2022/10/01 21:13:30;;;;;;;;;;;;;;;;;;8424075;28;28307;-75
2022/10/01 21:17:30;;;;;;;;;;;;;;;;;;8436723;28;27210;-75
2022/10/01 21:21:30;;;;;;;;;;;;;;;;;;8427572;28;28503;-74
2022/10/01 21:25:31;;;;;;;;;;;;;;;;;;8434741;27;28734;-75
2022/10/01 21:29:32;;;;;;;;;;;;;;;;;;8434252;28;28165;-74
2022/10/01 21:33:33;;;;;;;;;;;;;;;;;;8453938;27;28628;-72
2022/10/01 21:37:33;;;;;;;;;;;;;;;;;;8442827;27;28182;-74
2022/10/01 21:41:33;;;;;;;;;;;;;;;;;;8429208;28;28745;-72
2022/10/01 21:45:34;;;;;;;;;;;;;;;;;;8408253;28;28375;-75
2022/10/01 21:49:35;;;;;;;;;;;;;;;;;;8415954;28;27200;-73
2022/10/01 21:53:35;;;;;;;;;;;;;;;;;;8414308;28;29353;-74
2022/10/01 21:57:35;;;;;;;;;;;;;;;;;;8417581;27;27763;-75
2022/10/01 22:01:35;;;;;;;;;;;;;;;;;;8433890;27;28494;-74
2022/10/01 22:05:36;;;;;;;;;;;;;;;;;;8422299;28;28462;-74
2022/10/01 22:09:36;;;;;;;;;;;;;;;;;;8414339;27;28658;-74
2022/10/01 22:13:36;;;;;;;;;;;;;;;;;;8418991;28;28320;-74
2022/10/01 22:17:38;;;;;;;;;;;;;;;;;;8419097;27;27896;-75
2022/10/01 22:21:38;;;;;;;;;;;;;;;;;;8404428;28;28579;-75
2022/10/01 22:25:38;;;;;;;;;;;;;;;;;;8412462;28;28280;-73
2022/10/01 22:29:38;;;;;;;;;;;;;;;;;;8428095;27;28526;-75
2022/10/01 22:33:38;;;;;;;;;;;;;;;;;;8418864;28;28084;-74
2022/10/01 22:37:38;;;;;;;;;;;;;;;;;;8413575;27;28294;-74
2022/10/01 22:41:39;;;;;;;;;;;;;;;;;;8409048;28;28614;-73
2022/10/01 22:45:39;;;;;;;;;;;;;;;;;;8408477;27;27161;-74
2022/10/01 22:49:39;;;;;;;;;;;;;;;;;;8411438;28;28375;-75
2022/10/01 22:53:39;;;;;;;;;;;;;;;;;;8411937;28;27538;-74
2022/10/01 22:57:39;;;;;;;;;;;;;;;;;;8411026;27;28690;-74
2022/10/01 23:01:39;;;;;;;;;;;;;;;;;;8410146;27;28322;-75
2022/10/01 23:05:40;;;;;;;;;;;;;;;;;;8411311;28;27409;-73
2022/10/01 23:09:40;;;;;;;;;;;;;;;;;;8411470;28;27611;-74
2022/10/01 23:13:40;;;;;;;;;;;;;;;;;;8426110;27;29621;-73
2022/10/01 23:17:40;;;;;;;;;;;;;;;;;;8407164;27;29390;-73
2022/10/01 23:21:40;;;;;;;;;;;;;;;;;;8412715;27;28147;-75
2022/10/01 23:25:40;;;;;;;;;;;;;;;;;;8417537;27;27278;-75
2022/10/01 23:29:41;;;;;;;;;;;;;;;;;;8418224;28;27915;-74
2022/10/01 23:33:41;;;;;;;;;;;;;;;;;;8415248;28;28662;-75
2022/10/01 23:37:41;;;;;;;;;;;;;;;;;;8419876;28;27925;-75
2022/10/01 23:41:41;;;;;;;;;;;;;;;;;;8418238;28;28435;-75
2022/10/01 23:45:41;;;;;;;;;;;;;;;;;;8419531;28;28116;-74
2022/10/01 23:49:41;;;;;;;;;;;;;;;;;;8409469;27;28150;-75
2022/10/01 23:53:42;;;;;;;;;;;;;;;;;;8420657;28;28251;-76
2022/10/01 23:57:42;;;;;;;;;;;;;;;;;;8417705;27;28323;-74
